createdAt,value
2022-08-07T00:01:44.664Z,24.32
2022-08-07T00:04:45.382Z,24.28
2022-08-07T00:07:48.416Z,24.35
2022-08-07T00:11:00.837Z,24.32
2022-08-07T00:14:08.791Z,24.21
2022-08-07T00:17:13.832Z,24.23
2022-08-07T00:20:16.194Z,24.28
2022-08-07T00:23:33.635Z,24.31
2022-08-07T00:26:49.341Z,24.30
2022-08-07T00:29:58.639Z,24.33
2022-08-07T00:33:01.198Z,24.39
2022-08-07T00:36:06.274Z,24.46
2022-08-07T00:39:09.124Z,24.47
2022-08-07T00:42:19.402Z,24.51
2022-08-07T00:45:31.604Z,24.45
2022-08-07T00:48:42.280Z,24.46
2022-08-07T00:51:57.246Z,24.55
2022-08-07T00:55:04.767Z,24.43
2022-08-07T00:58:13.329Z,24.33
2022-08-07T01:01:16.752Z,24.36
2022-08-07T01:04:24.696Z,24.34
2022-08-07T01:07:29.295Z,24.38
2022-08-07T01:10:32.572Z,24.39
2022-08-07T01:13:37.222Z,24.50
2022-08-07T01:16:43.187Z,24.38
2022-08-07T01:19:54.238Z,24.37
2022-08-07T01:23:09.070Z,24.49
2022-08-07T01:26:16.788Z,24.58
2022-08-07T01:29:27.686Z,24.56
2022-08-07T01:32:34.477Z,24.59
2022-08-07T01:35:53.727Z,24.36
2022-08-07T01:38:58.308Z,24.35
2022-08-07T01:42:36.997Z,24.28
2022-08-07T01:45:36.306Z,24.37
2022-08-07T01:48:47.602Z,24.43
2022-08-07T01:52:03.936Z,24.37
2022-08-07T01:55:09.727Z,24.38
2022-08-07T01:58:33.061Z,24.32
2022-08-07T02:01:59.922Z,24.30
2022-08-07T02:05:04.882Z,24.28
2022-08-07T02:08:14.865Z,24.30
2022-08-07T02:11:30.882Z,24.32
2022-08-07T02:14:41.336Z,24.26
2022-08-07T02:17:49.858Z,24.27
2022-08-07T02:20:57.449Z,24.35
2022-08-07T02:24:00.424Z,24.35
2022-08-07T02:27:05.200Z,24.33
2022-08-07T02:30:09.329Z,24.42
2022-08-07T02:33:13.940Z,24.45
2022-08-07T02:36:28.988Z,24.36
2022-08-07T02:39:43.702Z,24.38
2022-08-07T02:43:00.228Z,24.26
2022-08-07T02:46:05.091Z,24.27
2022-08-07T02:49:07.966Z,24.28
2022-08-07T02:52:14.062Z,24.24
2022-08-07T02:55:28.236Z,24.31
2022-08-07T02:58:49.608Z,24.26
2022-08-07T03:01:55.363Z,24.15
2022-08-07T03:04:58.800Z,24.14
2022-08-07T03:08:05.053Z,24.21
2022-08-07T03:11:11.081Z,24.18
2022-08-07T03:14:14.777Z,24.12
2022-08-07T03:17:17.748Z,24.03
2022-08-07T03:20:20.527Z,23.94
2022-08-07T03:23:33.542Z,23.95
2022-08-07T03:26:51.374Z,24.02
2022-08-07T03:30:01.023Z,24.06
2022-08-07T03:33:10.000Z,24.02
2022-08-07T03:36:16.411Z,23.93
2022-08-07T03:39:59.766Z,23.89
2022-08-07T03:42:44.626Z,23.86
2022-08-07T03:45:48.771Z,23.84
2022-08-07T03:49:02.441Z,23.98
2022-08-07T03:52:07.636Z,23.90
2022-08-07T03:55:53.025Z,23.96
2022-08-07T03:59:07.779Z,23.80
2022-08-07T04:02:13.539Z,23.81
2022-08-07T04:05:19.699Z,23.98
2022-08-07T04:08:27.602Z,24.01
2022-08-07T04:12:21.519Z,23.90
2022-08-07T04:14:55.315Z,23.86
2022-08-07T04:18:58.262Z,23.89
2022-08-07T04:21:21.879Z,23.82
2022-08-07T04:24:33.799Z,23.80
2022-08-07T04:27:44.315Z,23.88
2022-08-07T04:30:57.068Z,23.92
2022-08-07T04:34:01.378Z,23.99
2022-08-07T04:37:08.131Z,24.06
2022-08-07T04:40:26.779Z,24.08
2022-08-07T04:44:11.862Z,24.10
2022-08-07T04:47:08.370Z,24.12
2022-08-07T04:50:28.499Z,24.27
2022-08-07T04:54:01.048Z,24.46
2022-08-07T04:58:15.883Z,24.48
2022-08-07T05:00:44.089Z,24.53
2022-08-07T05:04:06.760Z,24.46
2022-08-07T05:07:19.546Z,24.51
2022-08-07T05:10:25.000Z,24.50
2022-08-07T05:14:52.378Z,24.49
2022-08-07T05:17:05.921Z,24.41
2022-08-07T05:20:17.667Z,24.22
2022-08-07T05:23:29.818Z,24.22
2022-08-07T05:26:34.658Z,24.25
2022-08-07T05:29:51.198Z,24.37
2022-08-07T05:32:55.760Z,24.45
2022-08-07T05:36:01.290Z,24.28
2022-08-07T05:39:09.210Z,24.30
2022-08-07T05:42:34.211Z,24.36
2022-08-07T05:45:47.353Z,24.47
2022-08-07T05:48:59.030Z,24.45
2022-08-07T05:52:04.633Z,24.50
2022-08-07T05:55:10.809Z,24.54
2022-08-07T05:58:16.843Z,24.58
2022-08-07T06:01:20.968Z,24.61
2022-08-07T06:04:29.990Z,24.67
2022-08-07T06:08:14.392Z,24.71
2022-08-07T06:10:58.532Z,24.78
2022-08-07T06:14:12.401Z,24.91
2022-08-07T06:17:30.561Z,25.01
2022-08-07T06:20:49.763Z,25.05
2022-08-07T06:24:39.182Z,25.22
2022-08-07T06:27:22.838Z,25.30
2022-08-07T06:30:46.140Z,25.36
2022-08-07T06:33:56.399Z,25.44
2022-08-07T06:36:59.584Z,25.39
2022-08-07T06:40:16.205Z,25.35
2022-08-07T06:43:24.969Z,25.39
2022-08-07T06:46:34.983Z,25.47
2022-08-07T06:49:52.283Z,25.58
2022-08-07T06:53:04.224Z,25.73
2022-08-07T06:56:15.364Z,25.77
2022-08-07T07:00:13.059Z,25.88
2022-08-07T07:02:53.431Z,25.97
2022-08-07T07:06:03.413Z,26.17
2022-08-07T07:09:26.272Z,26.30
2022-08-07T07:12:48.808Z,26.32
2022-08-07T07:16:00.486Z,26.40
2022-08-07T07:19:54.484Z,26.45
2022-08-07T07:22:35.783Z,26.41
2022-08-07T07:26:32.445Z,26.20
2022-08-07T07:29:57.172Z,26.06
2022-08-07T07:32:36.035Z,26.05
2022-08-07T07:35:54.211Z,26.02
2022-08-07T07:39:05.671Z,26.04
2022-08-07T07:42:13.954Z,26.01
2022-08-07T07:45:24.474Z,25.98
2022-08-07T07:48:46.475Z,25.96
2022-08-07T07:51:57.509Z,25.91
2022-08-07T07:55:03.402Z,26.01
2022-08-07T07:58:06.179Z,26.19
2022-08-07T08:02:02.903Z,26.31
2022-08-07T08:04:33.619Z,26.44
2022-08-07T08:07:51.449Z,26.60
2022-08-07T08:11:00.996Z,26.69
2022-08-07T08:14:03.512Z,26.92
2022-08-07T08:17:55.677Z,27.13
2022-08-07T08:20:33.079Z,27.52
2022-08-07T08:23:57.666Z,27.92
2022-08-07T08:27:09.370Z,28.21
2022-08-07T08:30:14.356Z,28.60
2022-08-07T08:33:23.321Z,28.76
2022-08-07T08:36:29.581Z,29.21
2022-08-07T08:39:39.896Z,29.34
2022-08-07T08:43:08.876Z,29.43
2022-08-07T08:46:23.666Z,29.50
2022-08-07T08:49:46.739Z,29.60
2022-08-07T08:53:03.880Z,29.70
2022-08-07T08:56:08.508Z,29.85
2022-08-07T08:59:27.762Z,30.38
2022-08-07T09:02:40.446Z,30.80
2022-08-07T09:05:50.633Z,31.46
2022-08-07T09:09:13.388Z,32.35
2022-08-07T09:12:53.233Z,33.20
2022-08-07T09:16:23.617Z,33.52
2022-08-07T09:19:52.744Z,34.40
2022-08-07T09:24:33.579Z,34.87
2022-08-07T09:26:47.633Z,35.40
2022-08-07T09:30:04.271Z,35.40
2022-08-07T09:33:53.038Z,35.15
2022-08-07T09:36:58.137Z,34.41
2022-08-07T09:40:19.384Z,33.64
2022-08-07T09:44:03.588Z,33.37
2022-08-07T09:47:51.295Z,33.42
2022-08-07T09:50:40.308Z,33.44
2022-08-07T09:53:49.945Z,33.47
2022-08-07T09:57:21.792Z,33.50
2022-08-07T10:00:31.820Z,33.30
2022-08-07T10:04:06.620Z,33.16
2022-08-07T10:07:06.318Z,33.27
2022-08-07T10:11:59.463Z,34.01
2022-08-07T10:14:30.364Z,34.45
2022-08-07T10:18:00.320Z,34.81
2022-08-07T10:21:19.505Z,34.70
2022-08-07T10:24:45.516Z,34.55
2022-08-07T10:27:53.955Z,34.34
2022-08-07T10:31:17.718Z,33.69
2022-08-07T10:34:27.389Z,33.05
2022-08-07T10:37:59.918Z,33.04
2022-08-07T10:40:59.795Z,32.96
2022-08-07T10:44:07.592Z,33.00
2022-08-07T10:47:19.225Z,32.95
2022-08-07T10:50:32.098Z,33.10
2022-08-07T10:53:44.031Z,33.03
2022-08-07T10:56:53.368Z,32.96
2022-08-07T11:00:10.040Z,33.12
2022-08-07T11:03:54.952Z,33.05
2022-08-07T11:07:56.280Z,33.13
2022-08-07T11:10:45.339Z,33.51
2022-08-07T11:14:43.718Z,34.12
2022-08-07T11:17:42.858Z,34.39
2022-08-07T11:21:11.243Z,34.77
2022-08-07T11:24:16.635Z,34.83
2022-08-07T11:28:00.924Z,35.18
2022-08-07T11:30:54.457Z,35.70
2022-08-07T11:34:03.219Z,35.73
2022-08-07T11:37:24.969Z,35.62
2022-08-07T11:40:49.644Z,35.43
2022-08-07T11:44:11.711Z,34.83
2022-08-07T11:47:38.587Z,34.72
2022-08-07T11:50:57.782Z,35.29
2022-08-07T11:54:12.002Z,35.99
2022-08-07T11:57:15.990Z,36.54
2022-08-07T12:00:27.676Z,37.21
2022-08-07T12:03:45.508Z,37.91
2022-08-07T12:06:59.047Z,38.57
2022-08-07T12:10:08.554Z,39.11
2022-08-07T12:13:36.751Z,39.05
2022-08-07T12:16:48.270Z,38.97
2022-08-07T12:19:56.485Z,38.69
2022-08-07T12:23:21.453Z,38.80
2022-08-07T12:26:53.638Z,38.99
2022-08-07T12:30:04.223Z,39.10
2022-08-07T12:33:23.541Z,38.36
2022-08-07T12:36:33.735Z,38.23
2022-08-07T12:39:43.073Z,38.38
2022-08-07T12:42:52.665Z,38.47
2022-08-07T12:46:12.250Z,38.60
2022-08-07T12:49:48.855Z,38.74
2022-08-07T12:52:52.947Z,38.53
2022-08-07T12:56:03.318Z,38.76
2022-08-07T12:59:08.389Z,38.73
2022-08-07T13:02:33.291Z,38.53
2022-08-07T13:06:03.743Z,38.55
2022-08-07T13:10:17.831Z,38.53
2022-08-07T13:12:42.326Z,38.48
2022-08-07T13:16:05.265Z,38.52
2022-08-07T13:19:21.745Z,38.62
2022-08-07T13:22:53.521Z,38.50
2022-08-07T13:26:02.880Z,38.28
2022-08-07T13:29:10.999Z,38.02
2022-08-07T13:32:32.262Z,37.95
2022-08-07T13:36:00.436Z,37.89
2022-08-07T13:39:28.678Z,37.85
2022-08-07T13:42:39.775Z,37.75
2022-08-07T13:46:12.000Z,37.77
2022-08-07T13:49:19.761Z,37.66
2022-08-07T13:52:38.072Z,37.72
2022-08-07T13:55:54.177Z,37.53
2022-08-07T13:59:01.698Z,37.41
2022-08-07T14:02:12.810Z,37.26
2022-08-07T14:05:20.048Z,36.92
2022-08-07T14:08:25.263Z,36.76
2022-08-07T14:11:28.921Z,36.49
2022-08-07T14:15:14.200Z,36.24
2022-08-07T14:18:28.058Z,36.16
2022-08-07T14:22:01.441Z,36.11
2022-08-07T14:25:00.762Z,35.77
2022-08-07T14:28:10.874Z,35.69
2022-08-07T14:31:16.461Z,35.50
2022-08-07T14:34:27.244Z,35.39
2022-08-07T14:37:38.827Z,35.37
2022-08-07T14:40:49.474Z,35.31
2022-08-07T14:47:17.271Z,35.17
2022-08-07T14:50:23.717Z,35.11
2022-08-07T14:56:54.440Z,34.77
2022-08-07T15:00:04.558Z,34.74
2022-08-07T15:03:18.834Z,34.55
2022-08-07T15:06:23.804Z,34.33
2022-08-07T15:09:58.256Z,34.21
2022-08-07T15:12:58.515Z,34.12
2022-08-07T15:16:03.560Z,34.03
2022-08-07T15:19:18.338Z,33.99
2022-08-07T15:25:51.045Z,33.91
2022-08-07T15:32:39.035Z,33.41
2022-08-07T15:36:02.636Z,33.30
2022-08-07T15:42:45.950Z,33.14
2022-08-07T15:52:38.224Z,33.01
2022-08-07T15:56:02.196Z,32.93
2022-08-07T15:59:07.413Z,32.95
2022-08-07T16:02:24.312Z,32.72
2022-08-07T16:05:31.117Z,32.65
2022-08-07T16:08:38.400Z,32.65
2022-08-07T16:12:02.698Z,32.47
2022-08-07T16:15:55.089Z,32.41
2022-08-07T16:18:52.471Z,32.31
2022-08-07T16:22:31.609Z,32.19
2022-08-07T16:25:55.726Z,32.11
2022-08-07T16:30:08.246Z,31.98
2022-08-07T16:32:35.058Z,31.90
2022-08-07T16:35:52.160Z,31.84
2022-08-07T16:39:33.489Z,31.67
2022-08-07T16:42:36.640Z,31.57
2022-08-07T16:46:47.444Z,31.63
2022-08-07T16:50:29.136Z,31.59
2022-08-07T16:54:02.475Z,31.44
2022-08-07T16:56:43.876Z,31.37
2022-08-07T17:00:01.660Z,31.33
2022-08-07T17:03:57.791Z,31.32
2022-08-07T17:07:07.646Z,31.11
2022-08-07T17:10:33.777Z,30.90
2022-08-07T17:14:17.485Z,30.87
2022-08-07T17:17:06.381Z,30.57
2022-08-07T17:20:20.624Z,30.43
2022-08-07T17:23:33.180Z,30.27
2022-08-07T17:26:50.164Z,30.18
2022-08-07T17:30:18.123Z,30.07
2022-08-07T17:34:08.583Z,29.89
2022-08-07T17:36:59.888Z,29.84
2022-08-07T17:40:30.141Z,29.80
2022-08-07T17:44:00.947Z,29.69
2022-08-07T17:46:58.564Z,29.56
2022-08-07T17:50:01.842Z,29.47
2022-08-07T17:54:01.632Z,29.44
2022-08-07T17:56:49.600Z,29.45
2022-08-07T18:00:06.415Z,29.37
2022-08-07T18:03:18.805Z,29.29
2022-08-07T18:06:38.527Z,29.22
2022-08-07T18:10:04.459Z,29.11
2022-08-07T18:13:15.501Z,29.10
2022-08-07T18:16:32.595Z,29.07
2022-08-07T18:21:04.066Z,29.04
2022-08-07T18:23:21.827Z,28.97
2022-08-07T18:26:40.711Z,28.99
2022-08-07T18:30:07.818Z,28.88
2022-08-07T18:33:38.956Z,28.86
2022-08-07T18:38:57.158Z,28.76
2022-08-07T18:40:50.245Z,28.64
2022-08-07T18:44:05.655Z,28.67
2022-08-07T18:47:22.947Z,28.71
2022-08-07T18:50:39.618Z,28.59
2022-08-07T18:54:27.640Z,28.58
2022-08-07T18:57:36.779Z,28.51
2022-08-07T19:00:53.766Z,28.42
2022-08-07T19:04:09.962Z,28.40
2022-08-07T19:07:34.553Z,28.30
2022-08-07T19:10:51.272Z,28.23
2022-08-07T19:14:08.118Z,28.05
2022-08-07T19:17:20.272Z,27.93
2022-08-07T19:21:10.077Z,27.81
2022-08-07T19:24:30.749Z,27.77
2022-08-07T19:28:56.984Z,27.66
2022-08-07T19:31:42.859Z,27.62
2022-08-07T19:34:36.165Z,27.51
2022-08-07T19:37:57.239Z,27.40
2022-08-07T19:41:00.758Z,27.38
2022-08-07T19:44:04.768Z,27.30
2022-08-07T19:47:28.785Z,27.17
2022-08-07T19:50:41.181Z,27.15
2022-08-07T19:54:33.747Z,27.12
2022-08-07T19:58:00.565Z,27.14
2022-08-07T20:00:54.174Z,27.05
2022-08-07T20:04:00.240Z,26.87
2022-08-07T20:07:03.770Z,26.78
2022-08-07T20:10:37.370Z,26.81
2022-08-07T20:13:38.023Z,26.68
2022-08-07T20:16:54.478Z,26.57
2022-08-07T20:19:59.065Z,26.51
2022-08-07T20:23:10.799Z,26.49
2022-08-07T20:26:38.463Z,26.43
2022-08-07T20:29:59.230Z,26.38
2022-08-07T20:33:09.112Z,26.39
2022-08-07T20:36:30.761Z,26.39
2022-08-07T20:40:04.303Z,26.32
2022-08-07T20:42:59.059Z,26.25
2022-08-07T20:46:28.847Z,26.20
2022-08-07T20:49:59.395Z,26.12
2022-08-07T20:52:51.213Z,26.10
2022-08-07T20:55:57.593Z,26.11
2022-08-07T20:59:03.255Z,26.15
2022-08-07T21:02:34.766Z,26.03
2022-08-07T21:05:51.318Z,26.05
2022-08-07T21:09:03.429Z,25.89
2022-08-07T21:12:15.926Z,25.79
2022-08-07T21:15:58.137Z,25.82
2022-08-07T21:18:57.618Z,25.71
2022-08-07T21:22:03.841Z,25.72
2022-08-07T21:25:19.253Z,25.66
2022-08-07T21:28:48.362Z,25.58
2022-08-07T21:32:48.089Z,25.49
2022-08-07T21:35:34.633Z,25.55
2022-08-07T21:38:55.515Z,25.42
2022-08-07T21:42:07.379Z,25.33
2022-08-07T21:46:03.784Z,25.23
2022-08-07T21:49:04.771Z,25.21
2022-08-07T21:52:29.294Z,25.15
2022-08-07T21:55:51.634Z,25.10
2022-08-07T21:59:14.160Z,25.11
2022-08-07T22:02:21.650Z,25.05
2022-08-07T22:05:46.114Z,24.90
2022-08-07T22:08:59.598Z,24.92
2022-08-07T22:12:07.312Z,24.95
2022-08-07T22:16:39.827Z,24.92
2022-08-07T22:18:42.051Z,24.87
2022-08-07T22:22:17.651Z,24.95
2022-08-07T22:25:43.079Z,24.87
2022-08-07T22:28:53.135Z,24.77
2022-08-07T22:32:20.415Z,24.77
2022-08-07T22:35:23.463Z,24.75
2022-08-07T22:39:01.906Z,24.70
2022-08-07T22:42:19.595Z,24.68
2022-08-07T22:46:21.316Z,24.65
2022-08-07T22:49:33.884Z,24.75
2022-08-07T22:52:46.020Z,24.70
2022-08-07T22:55:59.921Z,24.72
2022-08-07T22:59:18.304Z,24.74
2022-08-07T23:02:37.364Z,24.76
2022-08-07T23:06:08.709Z,24.66
2022-08-07T23:10:06.080Z,24.57
2022-08-07T23:12:59.095Z,24.69
2022-08-07T23:16:48.511Z,24.67
2022-08-07T23:19:58.513Z,24.60
2022-08-07T23:24:04.502Z,24.66
2022-08-07T23:26:58.209Z,24.60
2022-08-07T23:30:38.622Z,24.46
2022-08-07T23:34:36.480Z,24.50
2022-08-07T23:37:19.192Z,24.39
2022-08-07T23:40:46.983Z,24.38
2022-08-07T23:44:10.634Z,24.39
2022-08-07T23:47:23.380Z,24.44
2022-08-07T23:50:45.226Z,24.32
2022-08-07T23:53:54.131Z,24.23
2022-08-07T23:57:18.595Z,24.18
